LFRB/BES METAR and TAF weather

Enter ICAO airport designator
Station Type Date Time Source
LFRB METAR 2019/12/11 12:00 UTC NOAA

LFRB 111200Z AUTO 26007KT 230V290 9999 FEW028/// BKN054/// BKN064/// ///CB 07/05 Q1008 TEMPO 28020G35KT 4000 SHRA BKN012CB


Station Type Date Time Source
LFRB Decoded METAR 2019/12/11 12:00 UTC NOAA

Brest, France (LFRB) 48-27N 004-25W 103M
Dec 11, 2019 - 07:00 AM EST / 2019.12.11 1200 UTC
Wind: from the W (260 degrees) at 8 MPH (7 KT) (direction variable):0
Visibility: greater than 7 mile(s):0
Sky conditions: mostly cloudy
Weather: Cumulonimbus clouds observed
Temperature: 44 F (7 C)
Dew Point: 41 F (5 C)
Relative Humidity: 87%
Pressure (altimeter): 29.77 in. Hg (1008 hPa)
ob: LFRB 111200Z AUTO 26007KT 230V290 9999 FEW028/// BKN054/// BKN064/// ///CB 07/05 Q1008 TEMPO 28020G35KT 4000 SHRA BKN012CB
cycle: 12

Station Type Date Time Source
LFRB TAF 2019/12/11 12:21 UTC NOAA

TAF LFRB 111100Z 1112/1218 24013KT 9999 FEW025 SCT030 BKN050
TEMPO 1112/1123 29015G25KT 4000 SHRA SCT015CB BKN025 PROB40
TEMPO 1112/1114 28020G35KT TSRAGS BKN012CB
BECMG 1200/1203 20012G22KT 3000 RA OVC006
BECMG 1210/1213 28020G35KT 9999 NSW SCT012 BKN020
TEMPO 1209/1218 SHRA BKN012CB

Example: see airport list